createdAt,value
2018-10-06T00:02:25.865Z,5.50
2018-10-06T00:04:54.752Z,5.30
2018-10-06T00:07:23.117Z,5.10
2018-10-06T00:09:51.402Z,4.90
2018-10-06T00:12:19.463Z,4.80
2018-10-06T00:14:47.517Z,4.90
2018-10-06T00:17:15.612Z,5.00
2018-10-06T00:19:43.776Z,5.20
2018-10-06T00:22:11.881Z,5.20
2018-10-06T00:24:39.912Z,5.20
2018-10-06T00:27:08.338Z,5.20
2018-10-06T00:29:36.816Z,5.10
2018-10-06T00:32:04.873Z,5.20
2018-10-06T00:34:32.952Z,5.20
2018-10-06T00:37:01.124Z,5.30
2018-10-06T00:39:29.293Z,5.40
2018-10-06T00:41:57.373Z,5.50
2018-10-06T00:44:25.661Z,5.60
2018-10-06T00:46:53.699Z,5.60
2018-10-06T00:49:21.902Z,5.40
2018-10-06T00:51:50.285Z,5.40
2018-10-06T00:54:18.392Z,5.20
2018-10-06T00:56:46.504Z,5.10
2018-10-06T00:59:14.693Z,5.00
2018-10-06T01:01:42.793Z,4.90
2018-10-06T01:04:11.157Z,4.80
2018-10-06T01:06:39.283Z,4.80
2018-10-06T01:09:08.960Z,4.80
2018-10-06T01:11:37.141Z,4.80
2018-10-06T01:14:05.263Z,4.90
2018-10-06T01:16:33.405Z,5.10
2018-10-06T01:19:01.434Z,5.10
2018-10-06T01:21:29.688Z,5.10
2018-10-06T01:23:57.799Z,5.10
2018-10-06T01:26:25.831Z,5.00
2018-10-06T01:28:54.136Z,5.00
2018-10-06T01:31:22.196Z,4.90
2018-10-06T01:33:50.275Z,4.90
2018-10-06T01:36:18.427Z,4.80
2018-10-06T01:38:46.528Z,4.80
2018-10-06T01:41:14.908Z,4.80
2018-10-06T01:43:42.969Z,4.80
2018-10-06T01:46:11.364Z,4.80
2018-10-06T01:48:39.520Z,4.80
2018-10-06T01:51:07.773Z,4.70
2018-10-06T01:53:35.849Z,4.70
2018-10-06T01:56:03.879Z,4.70
2018-10-06T01:58:31.904Z,4.70
2018-10-06T02:00:59.987Z,4.60
2018-10-06T02:03:28.087Z,4.60
2018-10-06T02:05:56.136Z,4.70
2018-10-06T02:08:24.228Z,4.60
2018-10-06T02:10:52.268Z,4.60
2018-10-06T02:13:20.500Z,4.60
2018-10-06T02:15:48.527Z,4.60
2018-10-06T02:18:16.837Z,4.50
2018-10-06T02:20:45.091Z,4.50
2018-10-06T02:23:13.196Z,4.50
2018-10-06T02:25:41.233Z,4.60
2018-10-06T02:28:09.406Z,4.60
2018-10-06T02:30:37.510Z,4.60
2018-10-06T02:33:05.752Z,4.70
2018-10-06T02:35:34.217Z,4.60
2018-10-06T02:38:02.192Z,4.60
2018-10-06T02:40:30.325Z,4.60
2018-10-06T02:42:58.456Z,4.60
2018-10-06T02:45:26.580Z,4.60
2018-10-06T02:47:54.693Z,4.60
2018-10-06T02:50:22.791Z,4.50
2018-10-06T02:52:51.164Z,4.50
2018-10-06T02:55:19.239Z,4.50
2018-10-06T02:57:47.355Z,4.40
2018-10-06T03:00:15.476Z,4.40
2018-10-06T03:02:43.688Z,4.30
2018-10-06T03:05:11.837Z,4.30
2018-10-06T03:07:39.924Z,4.40
2018-10-06T03:10:07.976Z,4.50
2018-10-06T03:12:36.075Z,4.50
2018-10-06T03:15:04.230Z,4.60
2018-10-06T03:17:32.430Z,4.70
2018-10-06T03:20:00.509Z,4.70
2018-10-06T03:22:28.567Z,4.50
2018-10-06T03:24:56.634Z,4.50
2018-10-06T03:27:24.769Z,4.60
2018-10-06T03:29:52.881Z,4.70
2018-10-06T03:32:21.052Z,4.90
2018-10-06T03:34:49.180Z,4.90
2018-10-06T03:37:17.311Z,5.00
2018-10-06T03:39:45.457Z,5.00
2018-10-06T03:42:13.597Z,5.00
2018-10-06T03:44:41.743Z,5.00
2018-10-06T03:47:09.922Z,5.00
2018-10-06T03:49:37.954Z,4.80
2018-10-06T03:52:06.219Z,4.60
2018-10-06T03:54:34.329Z,4.40
2018-10-06T03:57:02.404Z,4.40
2018-10-06T03:59:30.453Z,4.50
2018-10-06T04:01:58.551Z,4.60
2018-10-06T04:04:26.600Z,4.80
2018-10-06T04:06:54.698Z,5.00
2018-10-06T04:09:22.864Z,5.10
2018-10-06T04:11:50.972Z,5.10
2018-10-06T04:14:19.034Z,5.20
2018-10-06T04:16:47.075Z,5.30
2018-10-06T04:19:15.169Z,5.30
2018-10-06T04:21:47.005Z,5.20
2018-10-06T04:24:16.278Z,5.20
2018-10-06T04:26:44.580Z,5.20
2018-10-06T04:29:12.788Z,5.20
2018-10-06T04:31:40.972Z,5.10
2018-10-06T04:34:09.393Z,4.90
2018-10-06T04:36:37.519Z,4.80
2018-10-06T04:39:10.549Z,4.70
2018-10-06T04:41:38.564Z,4.50
2018-10-06T04:44:07.180Z,4.40
2018-10-06T04:46:35.228Z,4.30
2018-10-06T04:49:03.306Z,4.20
2018-10-06T04:51:31.382Z,4.30
2018-10-06T04:53:59.440Z,4.30
2018-10-06T04:56:27.554Z,4.30
2018-10-06T04:58:55.576Z,4.40
2018-10-06T05:01:23.678Z,4.40
2018-10-06T05:03:51.717Z,4.40
2018-10-06T05:06:19.803Z,4.40
2018-10-06T05:08:47.880Z,4.50
2018-10-06T05:11:15.957Z,4.60
2018-10-06T05:13:44.197Z,4.50
2018-10-06T05:16:12.289Z,4.50
2018-10-06T05:18:40.392Z,4.40
2018-10-06T05:21:08.446Z,4.40
2018-10-06T05:23:36.580Z,4.50
2018-10-06T05:26:04.784Z,4.50
2018-10-06T05:28:32.990Z,4.60
2018-10-06T05:31:01.074Z,4.80
2018-10-06T05:33:29.392Z,4.90
2018-10-06T05:35:57.505Z,5.00
2018-10-06T05:38:25.665Z,5.00
2018-10-06T05:40:54.061Z,5.10
2018-10-06T05:43:22.239Z,5.20
2018-10-06T05:45:50.523Z,5.20
2018-10-06T05:48:18.578Z,5.20
2018-10-06T05:50:46.764Z,5.30
2018-10-06T05:53:14.936Z,5.50
2018-10-06T05:55:43.106Z,5.60
2018-10-06T05:58:11.297Z,5.60
2018-10-06T06:00:39.335Z,5.50
2018-10-06T06:03:07.447Z,5.50
2018-10-06T06:05:35.510Z,5.60
2018-10-06T06:08:03.576Z,5.90
2018-10-06T06:10:31.734Z,6.20
2018-10-06T06:12:59.853Z,6.40
2018-10-06T06:15:28.056Z,6.60
2018-10-06T06:17:56.084Z,6.80
2018-10-06T06:20:24.173Z,7.00
2018-10-06T06:22:52.204Z,7.30
2018-10-06T06:25:20.346Z,7.50
2018-10-06T06:27:48.576Z,7.70
2018-10-06T06:30:16.767Z,7.80
2018-10-06T06:32:44.810Z,7.80
2018-10-06T06:35:12.997Z,7.70
2018-10-06T06:37:41.195Z,7.70
2018-10-06T06:40:09.312Z,7.80
2018-10-06T06:42:37.669Z,8.00
2018-10-06T06:45:05.932Z,8.20
2018-10-06T06:47:34.139Z,8.30
2018-10-06T06:50:02.252Z,8.60
2018-10-06T06:52:30.299Z,8.80
2018-10-06T06:54:58.446Z,9.10
2018-10-06T06:57:26.484Z,9.30
2018-10-06T06:59:54.681Z,9.60
2018-10-06T07:02:22.701Z,9.90
2018-10-06T07:04:50.898Z,10.20
2018-10-06T07:07:19.014Z,10.50
2018-10-06T07:09:47.027Z,10.60
2018-10-06T07:12:15.329Z,10.80
2018-10-06T07:14:43.383Z,10.90
2018-10-06T07:17:11.628Z,11.10
2018-10-06T07:19:39.834Z,11.20
2018-10-06T07:22:07.929Z,11.40
2018-10-06T07:24:36.104Z,11.60
2018-10-06T07:27:04.193Z,11.80
2018-10-06T07:29:32.340Z,12.10
2018-10-06T07:32:00.395Z,12.40
2018-10-06T07:34:28.604Z,12.60
2018-10-06T07:36:56.752Z,13.00
2018-10-06T07:39:24.941Z,13.40
2018-10-06T07:41:52.991Z,13.60
2018-10-06T07:44:21.297Z,13.90
2018-10-06T07:46:49.396Z,14.40
2018-10-06T07:49:17.406Z,14.50
2018-10-06T07:51:45.509Z,14.70
2018-10-06T07:54:13.562Z,14.90
2018-10-06T07:56:41.719Z,15.10
2018-10-06T07:59:09.746Z,15.10
2018-10-06T08:01:38.004Z,15.40
2018-10-06T08:04:06.062Z,15.30
2018-10-06T08:06:34.212Z,15.40
2018-10-06T08:09:02.391Z,15.40
2018-10-06T08:11:30.528Z,15.20
2018-10-06T08:13:58.579Z,15.00
2018-10-06T08:16:26.643Z,15.00
2018-10-06T08:18:54.756Z,15.00
2018-10-06T08:21:22.868Z,15.20
2018-10-06T08:23:50.983Z,15.50
2018-10-06T08:26:19.433Z,15.80
2018-10-06T08:28:47.638Z,16.20
2018-10-06T08:31:15.677Z,16.40
2018-10-06T08:33:43.789Z,16.60
2018-10-06T08:36:11.881Z,16.60
2018-10-06T08:38:39.898Z,16.90
2018-10-06T08:41:08.208Z,17.00
2018-10-06T08:43:36.270Z,17.10
2018-10-06T08:46:04.349Z,17.30
2018-10-06T08:48:32.395Z,17.50
2018-10-06T08:51:00.497Z,17.60
2018-10-06T08:53:28.760Z,17.60
2018-10-06T08:55:56.852Z,17.50
2018-10-06T08:58:25.121Z,17.40
2018-10-06T09:00:53.472Z,17.30
2018-10-06T09:03:21.687Z,17.40
2018-10-06T09:05:49.833Z,17.30
2018-10-06T09:08:17.925Z,17.40
2018-10-06T09:10:46.064Z,17.30
2018-10-06T09:13:14.142Z,17.20
2018-10-06T09:15:42.365Z,17.40
2018-10-06T09:18:10.618Z,17.90
2018-10-06T09:20:38.972Z,18.30
2018-10-06T09:23:07.062Z,18.60
2018-10-06T09:25:35.352Z,18.60
2018-10-06T09:28:03.539Z,18.70
2018-10-06T09:30:31.598Z,18.40
2018-10-06T09:32:59.791Z,18.40
2018-10-06T09:35:28.044Z,18.30
2018-10-06T09:37:56.252Z,18.20
2018-10-06T09:40:24.308Z,18.20
2018-10-06T09:42:52.594Z,18.00
2018-10-06T09:45:20.635Z,18.00
2018-10-06T09:47:48.831Z,18.10
2018-10-06T09:50:17.000Z,18.10
2018-10-06T09:52:45.170Z,18.10
2018-10-06T09:55:13.350Z,18.30
2018-10-06T09:57:41.503Z,18.40
2018-10-06T10:00:09.610Z,18.60
2018-10-06T10:02:43.257Z,18.70
2018-10-06T10:05:16.986Z,18.60
2018-10-06T10:07:45.163Z,18.70
2018-10-06T10:10:13.289Z,18.90
2018-10-06T10:12:41.476Z,19.10
2018-10-06T10:15:09.624Z,19.20
2018-10-06T10:17:37.783Z,19.30
2018-10-06T10:20:05.765Z,19.40
2018-10-06T10:22:33.961Z,19.50
2018-10-06T10:25:02.161Z,19.50
2018-10-06T10:27:30.289Z,19.60
2018-10-06T10:29:58.439Z,19.70
2018-10-06T10:32:26.540Z,19.80
2018-10-06T10:34:54.593Z,20.00
2018-10-06T10:37:22.708Z,20.20
2018-10-06T10:39:50.848Z,20.20
2018-10-06T10:42:19.058Z,19.90
2018-10-06T10:44:47.239Z,19.70
2018-10-06T10:47:15.371Z,19.50
2018-10-06T10:49:43.677Z,19.50
2018-10-06T10:52:11.846Z,19.40
2018-10-06T10:54:39.925Z,19.30
2018-10-06T10:57:07.977Z,19.40
2018-10-06T10:59:36.131Z,19.50
2018-10-06T11:02:04.196Z,19.70
2018-10-06T11:04:32.498Z,19.80
2018-10-06T11:07:00.589Z,20.00
2018-10-06T11:09:28.825Z,20.20
2018-10-06T11:11:57.044Z,20.50
2018-10-06T11:14:25.293Z,20.70
2018-10-06T11:16:53.501Z,20.90
2018-10-06T11:19:21.539Z,21.00
2018-10-06T11:21:49.634Z,21.00
2018-10-06T11:24:17.815Z,21.00
2018-10-06T11:26:45.889Z,21.20
2018-10-06T11:29:14.151Z,21.30
2018-10-06T11:31:42.200Z,21.60
2018-10-06T11:34:10.310Z,21.70
2018-10-06T11:36:38.306Z,21.90
2018-10-06T11:39:08.082Z,21.90
2018-10-06T11:41:36.131Z,22.10
2018-10-06T11:44:04.448Z,22.20
2018-10-06T11:46:32.481Z,22.40
2018-10-06T11:49:00.596Z,22.60
2018-10-06T11:51:28.741Z,22.80
2018-10-06T11:53:57.179Z,23.00
2018-10-06T11:56:25.190Z,23.20
2018-10-06T11:58:53.276Z,22.90
2018-10-06T12:01:21.460Z,22.70
2018-10-06T12:03:49.616Z,22.50
2018-10-06T12:06:17.808Z,22.20
2018-10-06T12:08:45.989Z,22.10
2018-10-06T12:11:14.173Z,22.00
2018-10-06T12:13:42.200Z,21.80
2018-10-06T12:16:10.313Z,22.00
2018-10-06T12:18:38.368Z,21.90
2018-10-06T12:21:06.476Z,21.70
2018-10-06T12:23:34.499Z,21.40
2018-10-06T12:26:02.645Z,21.20
2018-10-06T12:28:31.581Z,21.10
2018-10-06T12:31:03.549Z,21.00
2018-10-06T12:33:35.481Z,21.10
2018-10-06T12:36:05.285Z,21.20
2018-10-06T12:38:33.613Z,21.40
2018-10-06T12:41:01.711Z,21.70
2018-10-06T12:43:29.759Z,22.00
2018-10-06T12:46:00.430Z,22.20
2018-10-06T12:48:28.706Z,22.60
2018-10-06T12:51:00.853Z,22.90
2018-10-06T12:53:33.806Z,22.90
2018-10-06T12:56:01.900Z,22.80
2018-10-06T12:58:30.077Z,22.50
2018-10-06T13:00:58.154Z,22.20
2018-10-06T13:03:26.198Z,22.10
2018-10-06T13:05:54.469Z,22.00
2018-10-06T13:08:22.554Z,21.70
2018-10-06T13:10:50.648Z,21.60
2018-10-06T13:13:18.986Z,21.50
2018-10-06T13:15:53.392Z,21.50
2018-10-06T13:18:29.633Z,21.60
2018-10-06T13:21:08.953Z,21.80
2018-10-06T13:23:43.007Z,21.90
2018-10-06T13:26:12.380Z,21.70
2018-10-06T13:28:48.428Z,21.70
2018-10-06T13:31:25.928Z,21.30
2018-10-06T13:34:07.729Z,20.90
2018-10-06T13:36:45.553Z,20.70
2018-10-06T13:39:17.089Z,20.40
2018-10-06T13:41:52.687Z,20.30
2018-10-06T13:44:22.781Z,20.20
2018-10-06T13:46:53.037Z,20.30
2018-10-06T13:49:23.420Z,20.40
2018-10-06T13:51:54.388Z,20.70
2018-10-06T13:54:24.673Z,21.20
2018-10-06T13:56:55.076Z,21.70
2018-10-06T13:59:24.968Z,22.10
2018-10-06T14:01:55.475Z,22.50
2018-10-06T14:04:25.386Z,22.70
2018-10-06T14:06:55.550Z,22.60
2018-10-06T14:09:25.522Z,22.50
2018-10-06T14:11:55.238Z,22.20
2018-10-06T14:14:24.451Z,22.00
2018-10-06T14:16:53.162Z,21.80
2018-10-06T14:19:22.525Z,21.60
2018-10-06T14:21:51.834Z,21.60
2018-10-06T14:24:21.963Z,21.50
2018-10-06T14:26:51.698Z,21.50
2018-10-06T14:29:21.317Z,21.50
2018-10-06T14:31:50.702Z,21.50
2018-10-06T14:34:20.183Z,21.40
2018-10-06T14:36:49.575Z,21.40
2018-10-06T14:39:19.060Z,21.40
2018-10-06T14:41:48.795Z,21.30
2018-10-06T14:44:16.310Z,21.30
2018-10-06T14:46:43.781Z,21.30
2018-10-06T14:49:11.269Z,21.20
2018-10-06T14:51:38.698Z,21.20
2018-10-06T14:54:06.114Z,21.20
2018-10-06T14:56:33.483Z,21.10
2018-10-06T14:59:00.982Z,21.00
2018-10-06T15:01:28.307Z,21.00
2018-10-06T15:03:55.846Z,20.90
2018-10-06T15:06:23.132Z,20.90
2018-10-06T15:08:50.714Z,20.90
2018-10-06T15:11:18.243Z,20.90
2018-10-06T15:13:45.734Z,20.90
2018-10-06T15:16:13.154Z,21.00
2018-10-06T15:18:40.700Z,20.80
2018-10-06T15:21:08.291Z,20.80
2018-10-06T15:23:35.782Z,20.80
2018-10-06T15:26:03.111Z,20.70
2018-10-06T15:28:30.481Z,20.60
2018-10-06T15:30:58.061Z,20.50
2018-10-06T15:33:25.928Z,20.30
2018-10-06T15:35:54.961Z,20.20
2018-10-06T15:38:22.327Z,20.10
2018-10-06T15:40:49.711Z,20.00
2018-10-06T15:43:17.038Z,19.80
2018-10-06T15:45:44.531Z,19.60
2018-10-06T15:48:11.858Z,19.30
2018-10-06T15:50:39.240Z,19.00
2018-10-06T15:53:06.689Z,18.80
2018-10-06T15:55:34.048Z,18.70
2018-10-06T15:58:01.712Z,18.50
2018-10-06T16:00:29.070Z,18.30
2018-10-06T16:02:56.584Z,18.10
2018-10-06T16:05:23.892Z,18.00
2018-10-06T16:07:51.215Z,17.80
2018-10-06T16:10:18.595Z,17.60
2018-10-06T16:12:45.926Z,17.40
2018-10-06T16:15:13.308Z,17.20
2018-10-06T16:17:40.772Z,17.10
2018-10-06T16:20:08.097Z,17.00
2018-10-06T16:22:35.499Z,16.90
2018-10-06T16:25:02.942Z,16.80
2018-10-06T16:27:30.423Z,16.70
2018-10-06T16:29:57.735Z,16.50
2018-10-06T16:32:25.119Z,16.40
2018-10-06T16:34:52.450Z,16.30
2018-10-06T16:37:19.837Z,16.30
2018-10-06T16:39:47.163Z,16.20
2018-10-06T16:42:14.530Z,16.20
2018-10-06T16:44:42.346Z,16.20
2018-10-06T16:47:09.709Z,16.10
2018-10-06T16:49:37.123Z,15.90
2018-10-06T16:52:04.519Z,15.60
2018-10-06T16:54:31.836Z,15.40
2018-10-06T16:56:59.187Z,15.20
2018-10-06T16:59:26.711Z,15.00
2018-10-06T17:01:54.062Z,15.00
2018-10-06T17:04:21.332Z,14.90
2018-10-06T17:06:48.732Z,14.80
2018-10-06T17:09:16.134Z,14.60
2018-10-06T17:11:43.407Z,14.50
2018-10-06T17:14:10.792Z,14.50
2018-10-06T17:16:38.115Z,14.50
2018-10-06T17:19:05.702Z,14.60
2018-10-06T17:21:33.168Z,14.50
2018-10-06T17:24:01.036Z,14.40
2018-10-06T17:26:28.355Z,14.40
2018-10-06T17:28:55.742Z,14.40
2018-10-06T17:31:23.073Z,14.40
2018-10-06T17:33:50.348Z,14.40
2018-10-06T17:36:17.877Z,14.40
2018-10-06T17:38:47.339Z,14.40
2018-10-06T17:41:14.888Z,14.40
2018-10-06T17:43:42.428Z,14.40
2018-10-06T17:46:09.881Z,14.40
2018-10-06T17:48:37.367Z,14.50
2018-10-06T17:51:06.445Z,14.50
2018-10-06T17:53:34.128Z,14.50
2018-10-06T17:56:01.774Z,14.40
2018-10-06T17:58:29.161Z,14.40
2018-10-06T18:00:56.489Z,14.40
2018-10-06T18:03:23.837Z,14.30
2018-10-06T18:05:51.204Z,14.30
2018-10-06T18:08:18.659Z,14.30
2018-10-06T18:10:46.959Z,14.30
2018-10-06T18:13:14.507Z,14.30
2018-10-06T18:15:42.980Z,14.30
2018-10-06T18:18:10.628Z,14.30
2018-10-06T18:20:39.106Z,14.20
2018-10-06T18:23:06.475Z,14.10
2018-10-06T18:25:33.966Z,14.00
2018-10-06T18:28:01.383Z,14.00
2018-10-06T18:30:29.078Z,14.00
2018-10-06T18:32:56.703Z,14.00
2018-10-06T18:35:24.188Z,14.00
2018-10-06T18:37:51.658Z,13.90
2018-10-06T18:41:02.454Z,13.90
2018-10-06T18:43:30.580Z,13.90
2018-10-06T18:45:59.084Z,13.90
2018-10-06T18:48:27.420Z,13.90
2018-10-06T18:50:55.901Z,13.90
2018-10-06T18:53:23.921Z,13.90
2018-10-06T18:58:43.657Z,14.10
2018-10-06T19:01:11.785Z,14.00
2018-10-06T19:03:39.901Z,14.00
2018-10-06T19:06:08.026Z,14.00
2018-10-06T19:08:36.428Z,14.00
2018-10-06T19:11:04.780Z,14.00
2018-10-06T19:13:33.171Z,13.90
2018-10-06T19:16:01.336Z,13.80
2018-10-06T19:18:29.737Z,13.80
2018-10-06T19:20:57.920Z,13.80
2018-10-06T19:23:25.920Z,13.70
2018-10-06T19:25:54.065Z,13.70
2018-10-06T19:28:22.328Z,13.80
2018-10-06T19:30:50.621Z,13.70
2018-10-06T19:33:18.761Z,13.70
2018-10-06T19:35:46.985Z,13.70
2018-10-06T19:38:15.321Z,13.70
2018-10-06T19:40:43.421Z,13.60
2018-10-06T19:43:11.475Z,13.60
2018-10-06T19:45:39.715Z,13.50
2018-10-06T19:48:07.712Z,13.40
2018-10-06T19:50:35.900Z,13.40
2018-10-06T19:53:04.377Z,13.30
2018-10-06T19:55:32.704Z,13.20
2018-10-06T19:58:00.932Z,13.10
2018-10-06T20:00:29.140Z,13.10
2018-10-06T20:02:57.293Z,13.20
2018-10-06T20:05:25.590Z,13.20
2018-10-06T20:07:53.641Z,13.20
2018-10-06T20:10:21.955Z,13.10
2018-10-06T20:12:50.094Z,13.00
2018-10-06T20:15:18.381Z,13.00
2018-10-06T20:17:46.541Z,13.00
2018-10-06T20:20:14.829Z,12.90
2018-10-06T20:22:43.193Z,12.90
2018-10-06T20:25:11.401Z,13.00
2018-10-06T20:27:39.437Z,13.10
2018-10-06T20:30:07.634Z,13.10
2018-10-06T20:32:35.926Z,13.20
2018-10-06T20:35:04.192Z,13.20
2018-10-06T20:37:32.354Z,13.20
2018-10-06T20:40:00.773Z,13.20
2018-10-06T20:42:28.983Z,13.20
2018-10-06T20:44:57.078Z,13.10
2018-10-06T20:47:25.301Z,13.00
2018-10-06T20:49:53.639Z,12.90
2018-10-06T20:52:22.050Z,12.90
2018-10-06T20:54:50.237Z,13.00
2018-10-06T20:57:18.385Z,13.10
2018-10-06T20:59:46.466Z,13.10
2018-10-06T21:02:14.541Z,13.10
2018-10-06T21:04:42.609Z,13.10
2018-10-06T21:07:10.774Z,13.10
2018-10-06T21:09:39.009Z,13.10
2018-10-06T21:12:07.521Z,13.10
2018-10-06T21:14:35.613Z,13.10
2018-10-06T21:17:03.873Z,13.00
2018-10-06T21:19:32.111Z,13.10
2018-10-06T21:22:00.250Z,13.10
2018-10-06T21:24:28.430Z,13.20
2018-10-06T21:26:56.676Z,13.20
2018-10-06T21:29:24.925Z,13.20
2018-10-06T21:31:52.820Z,13.10
2018-10-06T21:34:20.954Z,13.20
2018-10-06T21:36:48.959Z,13.20
2018-10-06T21:39:17.172Z,13.20
2018-10-06T21:41:45.213Z,13.30
2018-10-06T21:44:13.425Z,13.30
2018-10-06T21:46:41.488Z,13.40
2018-10-06T21:49:09.660Z,13.40
2018-10-06T21:51:37.851Z,13.40
2018-10-06T21:54:05.905Z,13.40
2018-10-06T21:56:34.097Z,13.40
2018-10-06T21:59:02.355Z,13.30
2018-10-06T22:01:30.626Z,13.40
2018-10-06T22:03:58.688Z,13.40
2018-10-06T22:06:26.797Z,13.40
2018-10-06T22:08:55.272Z,13.50
2018-10-06T22:11:23.679Z,13.50
2018-10-06T22:13:51.929Z,13.50
2018-10-06T22:16:20.189Z,13.50
2018-10-06T22:18:48.269Z,13.40
2018-10-06T22:21:16.453Z,13.30
2018-10-06T22:23:44.728Z,13.30
2018-10-06T22:26:12.812Z,13.30
2018-10-06T22:28:40.867Z,13.20
2018-10-06T22:31:08.954Z,13.20
2018-10-06T22:33:37.020Z,13.20
2018-10-06T22:36:05.085Z,13.20
2018-10-06T22:38:33.284Z,13.30
2018-10-06T22:41:01.460Z,13.30
2018-10-06T22:43:29.550Z,13.30
2018-10-06T22:45:57.718Z,13.30
2018-10-06T22:48:26.077Z,13.30
2018-10-06T22:50:54.133Z,13.30
2018-10-06T22:53:22.226Z,13.30
2018-10-06T22:55:50.291Z,13.40
2018-10-06T22:58:18.464Z,13.30
2018-10-06T23:00:46.630Z,13.30
2018-10-06T23:03:14.882Z,13.30
2018-10-06T23:05:43.090Z,13.30
2018-10-06T23:08:11.394Z,13.30
2018-10-06T23:10:39.731Z,13.30
2018-10-06T23:13:07.950Z,13.30
2018-10-06T23:15:36.129Z,13.30
2018-10-06T23:18:04.165Z,13.20
2018-10-06T23:20:32.497Z,13.10
2018-10-06T23:23:00.630Z,13.00
2018-10-06T23:25:28.934Z,13.00
2018-10-06T23:27:57.016Z,13.00
2018-10-06T23:30:25.272Z,13.00
2018-10-06T23:32:53.437Z,13.10
2018-10-06T23:35:21.526Z,13.10
2018-10-06T23:37:49.573Z,13.10
2018-10-06T23:40:17.861Z,13.00
2018-10-06T23:42:46.087Z,13.00
2018-10-06T23:45:14.194Z,13.00
2018-10-06T23:47:42.293Z,13.00
2018-10-06T23:50:10.477Z,13.10
2018-10-06T23:52:38.637Z,13.10
2018-10-06T23:55:06.888Z,13.20
2018-10-06T23:57:35.009Z,13.20
